Alta Vista, Kansas
Current Conditions -  °F | °C
As of 10:58 PM on Wednesday 22 Oct 2014 (Local Time) from KFRI Reporting Station
Light Rain Light Rain  
Wind Chill: 64°   Ceiling: 9500
Heat Index: 64°   Visibility: 10mi
Dew Point: 62°   Wind: 6mph
Humidity: 94%   Direction: 190°S
Pressure: 30.07"   Gusts: NA
Location:  38.86°N, 96.49°W
Report Text: KFRI 230358Z AUTO 19005KT 10SM -RA FEW070 BKN095 18/17 A3007 RMK AO2 RAB0339DZB0340E0341 SLP175 P0000 T01780169
Loading
Personal Weather Stations






























Interactive Weather Map
Tropical Storm Tracking
New forecast layout! Learn more

10-Day Weather Forecast

Advertisements
Track Severe Weather on mobile